Time;durP1;ratioP1;P1;durP2;ratioP2;P2;SDS_P1;SDS_P2;PMS_P1;PMS_P2;Temp;Humidity;BMP_temperature;BMP_pressure;BME280_temperature;BME280_humidity;BME280_pressure;Samples;Min_cycle;Max_cycle;Signal;HPM_P1;HPM_P2
2022/10/17 00:00:56;;;;;;;11.80;9.78;;;;;;;6.10;73.62;101359.21;1793684;79;21024;-71
2022/10/17 00:03:22;;;;;;;13.93;9.10;;;;;;;6.09;73.75;101358.91;1793679;80;21126;-73
2022/10/17 00:05:50;;;;;;;11.25;8.60;;;;;;;6.02;74.18;101360.12;1793883;79;21500;-72
2022/10/17 00:08:17;;;;;;;10.05;9.00;;;;;;;5.96;74.36;101363.50;1793077;79;20992;-73
2022/10/17 00:10:44;;;;;;;13.68;8.75;;;;;;;5.92;74.58;101367.54;1793088;80;21011;-78
2022/10/17 00:13:12;;;;;;;12.70;9.78;;;;;;;5.91;74.69;101362.37;1792934;79;21083;-77
2022/10/17 00:15:43;;;;;;;12.00;10.38;;;;;;;5.92;74.76;101364.87;1793238;79;20945;-74
2022/10/17 00:18:11;;;;;;;14.13;10.18;;;;;;;5.93;74.78;101369.70;1793305;80;20905;-76
2022/10/17 00:20:38;;;;;;;12.05;8.90;;;;;;;5.93;74.77;101373.21;1793299;79;21327;-76
2022/10/17 00:23:06;;;;;;;16.23;8.78;;;;;;;5.94;74.79;101369.54;1793395;79;20886;-71
2022/10/17 00:25:35;;;;;;;12.55;10.18;;;;;;;5.93;74.86;101374.55;1793438;79;21501;-74
2022/10/17 00:28:02;;;;;;;12.90;8.55;;;;;;;5.91;74.91;101377.05;1793438;79;21731;-74
2022/10/17 00:30:31;;;;;;;10.63;8.88;;;;;;;5.92;74.99;101370.71;1791887;79;20947;-75
2022/10/17 00:32:58;;;;;;;11.03;8.70;;;;;;;5.93;75.11;101373.72;1789266;80;20966;-74
2022/10/17 00:35:24;;;;;;;12.47;9.43;;;;;;;5.94;75.09;101371.38;1789272;80;21534;-72
2022/10/17 00:37:52;;;;;;;10.32;9.13;;;;;;;5.95;75.10;101377.85;1789465;80;21077;-74
2022/10/17 00:40:18;;;;;;;15.50;9.45;;;;;;;5.99;75.02;101373.84;1789695;79;21352;-74
2022/10/17 00:42:45;;;;;;;10.18;8.25;;;;;;;6.01;74.92;101368.30;1790536;79;20977;-74
2022/10/17 00:45:19;;;;;;;12.40;9.40;;;;;;;5.96;75.05;101364.00;1795607;78;21138;-73
2022/10/17 00:47:52;;;;;;;11.55;8.98;;;;;;;5.88;75.27;101370.74;1795716;79;20967;-72
2022/10/17 00:50:19;;;;;;;13.40;9.18;;;;;;;5.80;75.46;101377.45;1796242;79;21578;-74
2022/10/17 00:52:46;;;;;;;10.58;8.98;;;;;;;5.71;75.63;101376.66;1795689;79;21229;-73
2022/10/17 00:55:20;;;;;;;21.12;15.00;;;;;;;5.68;75.89;101373.02;1792927;79;21018;-72
2022/10/17 00:57:47;;;;;;;11.15;9.98;;;;;;;5.62;76.08;101371.88;1795642;79;21012;-73
2022/10/17 01:00:14;;;;;;;12.37;10.43;;;;;;;5.60;76.18;101360.56;1795789;79;20999;-73
2022/10/17 01:02:41;;;;;;;14.55;10.18;;;;;;;5.62;76.27;101365.20;1796016;79;20975;-75
2022/10/17 01:05:08;;;;;;;12.40;9.43;;;;;;;5.62;76.56;101360.37;1794882;79;21165;-78
2022/10/17 01:07:37;;;;;;;11.97;9.83;;;;;;;5.56;76.68;101360.56;1709349;81;21087;-79
2022/10/17 01:10:06;;;;;;;12.80;9.03;;;;;;;5.52;76.97;101361.09;1758299;81;20969;-72
2022/10/17 01:12:46;;;;;;;16.02;9.90;;;;;;;5.51;76.94;101366.96;1757948;81;21668;-71
2022/10/17 01:15:19;;;;;;;15.35;9.95;;;;;;;5.54;76.94;101369.27;1785919;80;21078;-69
2022/10/17 01:18:14;;;;;;;10.15;8.50;;;;;;;5.58;76.95;101369.23;1789184;80;21085;-72
2022/10/17 01:21:33;;;;;;;17.05;9.68;;;;;;;5.62;76.94;101367.04;1788413;80;20876;-74
2022/10/17 01:24:11;;;;;;;13.85;9.83;;;;;;;5.62;76.87;101361.70;1775414;80;20918;-74
2022/10/17 01:27:09;;;;;;;10.10;8.30;;;;;;;5.61;76.87;101356.86;1758612;81;21088;-75
2022/10/17 01:30:00;;;;;;;13.03;9.23;;;;;;;5.59;76.94;101349.55;1738841;81;21045;-72
2022/10/17 01:32:40;;;;;;;13.62;7.87;;;;;;;5.59;77.09;101350.05;1703428;83;21532;-72
2022/10/17 01:35:24;;;;;;;13.10;9.58;;;;;;;5.57;77.25;101353.39;1720659;83;21642;-72
2022/10/17 01:38:15;;;;;;;12.93;9.45;;;;;;;5.60;77.27;101355.23;1732425;82;21007;-73
2022/10/17 01:40:50;;;;;;;13.18;9.30;;;;;;;5.62;77.16;101357.20;1751930;81;21019;-75
2022/10/17 01:43:24;;;;;;;14.73;9.65;;;;;;;5.58;77.19;101353.22;1753411;80;21151;-72
2022/10/17 01:46:14;;;;;;;13.40;9.08;;;;;;;5.55;77.21;101356.25;1770325;80;21091;-72
2022/10/17 01:48:41;;;;;;;15.40;10.37;;;;;;;5.54;77.25;101354.59;1771238;80;21002;-73
2022/10/17 01:51:20;;;;;;;11.73;9.50;;;;;;;5.49;77.31;101363.63;1771240;80;20990;-73
2022/10/17 01:53:51;;;;;;;11.70;9.53;;;;;;;5.48;77.38;101358.45;1758383;80;21542;-74
2022/10/17 01:56:18;;;;;;;13.20;10.72;;;;;;;5.45;77.41;101355.64;1759433;80;21027;-72
2022/10/17 01:58:53;;;;;;;19.17;10.68;;;;;;;5.44;77.45;101360.65;1762886;81;21875;-70
2022/10/17 02:01:19;;;;;;;13.88;10.58;;;;;;;5.43;77.48;101359.48;1762424;81;21125;-71
2022/10/17 02:03:47;;;;;;;11.53;8.68;;;;;;;5.42;77.73;101366.66;1760009;80;21005;-71
2022/10/17 02:06:14;;;;;;;15.03;10.08;;;;;;;5.44;77.79;101361.15;1763006;81;20954;-70
2022/10/17 02:08:44;;;;;;;13.70;10.18;;;;;;;5.47;77.79;101360.78;1763014;81;21082;-72
2022/10/17 02:11:19;;;;;;;9.68;8.30;;;;;;;5.51;77.75;101350.11;1762739;81;21186;-72
2022/10/17 02:14:23;;;;;;;14.78;10.65;;;;;;;5.50;77.72;101344.44;1759840;80;21034;-70
2022/10/17 02:17:02;;;;;;;10.82;9.73;;;;;;;5.41;77.79;101332.99;1735181;82;21798;-71
2022/10/17 02:19:56;;;;;;;12.82;10.05;;;;;;;5.32;78.17;101337.22;1756754;81;21627;-71
2022/10/17 02:23:05;;;;;;;12.95;10.95;;;;;;;5.25;78.37;101328.58;1757156;81;26532;-68
2022/10/17 02:25:46;;;;;;;12.53;9.33;;;;;;;5.24;78.48;101334.91;1732063;82;21176;-72
2022/10/17 02:28:40;;;;;;;12.05;10.13;;;;;;;5.27;78.59;101340.41;1756056;81;21034;-74
2022/10/17 02:31:16;;;;;;;12.85;9.80;;;;;;;5.29;78.67;101335.72;1731764;82;21022;-71
2022/10/17 02:33:59;;;;;;;10.80;9.10;;;;;;;5.36;78.70;101342.03;1748782;81;20915;-71
2022/10/17 02:36:43;;;;;;;17.35;9.98;;;;;;;5.42;78.61;101349.84;1760978;81;21070;-72
2022/10/17 02:39:10;;;;;;;12.47;9.55;;;;;;;5.46;78.41;101347.97;1736625;80;21157;-72
2022/10/17 02:41:37;;;;;;;11.15;9.95;;;;;;;5.52;78.27;101348.58;1724280;83;21012;-73
2022/10/17 02:44:04;;;;;;;14.60;9.73;;;;;;;5.51;78.07;101344.28;1743765;81;21269;-72
2022/10/17 02:46:31;;;;;;;13.58;8.85;;;;;;;5.52;77.99;101345.08;1734945;81;21587;-71
2022/10/17 02:49:17;;;;;;;10.10;9.03;;;;;;;5.49;77.95;101346.78;1762886;81;21615;-72
2022/10/17 02:51:57;;;;;;;11.97;9.38;;;;;;;5.39;78.14;101340.83;1763323;81;21090;-74
2022/10/17 02:54:38;;;;;;;11.63;9.45;;;;;;;5.19;78.48;101333.27;1762440;81;21096;-73
2022/10/17 02:57:30;;;;;;;12.90;10.00;;;;;;;5.10;78.87;101344.98;1763082;81;21538;-73
2022/10/17 02:59:58;;;;;;;15.88;13.13;;;;;;;5.06;79.16;101355.67;1752391;81;21022;-73
2022/10/17 03:02:25;;;;;;;23.07;15.23;;;;;;;5.03;79.45;101348.53;1765747;81;21146;-73
2022/10/17 03:04:52;;;;;;;13.48;11.30;;;;;;;5.06;79.55;101354.34;1789364;79;22228;-74
2022/10/17 03:07:18;;;;;;;16.82;12.40;;;;;;;5.08;79.64;101364.84;1736390;81;21062;-72
2022/10/17 03:09:45;;;;;;;12.13;9.20;;;;;;;5.12;79.60;101368.82;1730585;82;21638;-73
2022/10/17 03:12:13;;;;;;;15.95;10.43;;;;;;;5.16;79.55;101365.63;1763477;80;21599;-74
2022/10/17 03:14:42;;;;;;;12.35;9.40;;;;;;;5.20;79.40;101370.94;1733770;81;21109;-74
2022/10/17 03:17:09;;;;;;;11.65;10.45;;;;;;;5.22;79.28;101381.45;1731889;82;21766;-73
2022/10/17 03:19:37;;;;;;;12.03;9.25;;;;;;;5.23;79.21;101381.75;1733716;82;21026;-72
2022/10/17 03:22:04;;;;;;;15.35;11.12;;;;;;;5.23;79.19;101387.92;1746480;82;21047;-74
2022/10/17 03:24:32;;;;;;;13.55;11.65;;;;;;;5.22;79.08;101386.28;1723054;82;21726;-75
2022/10/17 03:26:59;;;;;;;11.78;9.88;;;;;;;5.26;79.18;101386.27;1749235;82;21542;-71
2022/10/17 03:29:27;;;;;;;10.93;9.73;;;;;;;5.32;79.13;101390.08;1736507;81;21240;-72
2022/10/17 03:31:53;;;;;;;16.45;11.68;;;;;;;5.38;78.78;101392.02;1762091;81;21096;-71
2022/10/17 03:34:20;;;;;;;13.60;11.22;;;;;;;5.40;78.71;101397.20;1742331;81;21116;-71
2022/10/17 03:36:49;;;;;;;11.97;9.30;;;;;;;5.40;78.71;101397.20;1762210;81;21030;-71
2022/10/17 03:39:17;;;;;;;15.60;10.63;;;;;;;5.41;78.62;101401.03;1762361;81;21078;-72
2022/10/17 03:41:44;;;;;;;11.65;9.88;;;;;;;5.42;78.60;101409.87;1762118;81;21226;-71
2022/10/17 03:44:11;;;;;;;15.88;11.33;;;;;;;5.42;78.54;101405.88;1742291;80;21691;-70
2022/10/17 03:46:39;;;;;;;16.02;12.18;;;;;;;5.41;78.55;101416.21;1713138;81;21054;-73
2022/10/17 03:49:07;;;;;;;16.37;11.88;;;;;;;5.38;78.59;101405.86;1762379;81;20955;-74
2022/10/17 03:51:35;;;;;;;17.05;13.43;;;;;;;5.36;78.61;101407.39;1738616;81;21539;-74
2022/10/17 03:54:03;;;;;;;17.48;12.35;;;;;;;5.36;78.71;101411.89;1732200;82;21119;-72
2022/10/17 03:56:32;;;;;;;11.48;9.73;;;;;;;5.35;78.81;101401.72;1741692;81;21109;-71
2022/10/17 03:59:04;;;;;;;13.20;10.90;;;;;;;5.36;78.86;101396.72;1723799;83;21853;-73
2022/10/17 04:01:32;;;;;;;16.15;12.05;;;;;;;5.45;78.80;101401.02;1757678;80;20979;-72
2022/10/17 04:03:59;;;;;;;15.15;11.97;;;;;;;5.50;78.67;101400.48;1746890;82;20949;-73
2022/10/17 04:06:29;;;;;;;15.53;12.80;;;;;;;5.54;78.51;101407.97;1750096;81;21865;-72
2022/10/17 04:08:57;;;;;;;15.85;11.78;;;;;;;5.55;78.35;101401.62;1733751;82;21012;-72
2022/10/17 04:11:25;;;;;;;14.73;11.30;;;;;;;5.52;78.25;101405.96;1703520;82;21063;-74
2022/10/17 04:13:54;;;;;;;12.85;11.15;;;;;;;5.50;78.25;101408.48;1708644;82;21056;-73
2022/10/17 04:16:21;;;;;;;18.57;11.57;;;;;;;5.47;78.26;101412.83;1743900;81;21055;-74
2022/10/17 04:18:54;;;;;;;16.90;12.33;;;;;;;5.43;78.31;101415.02;1746528;82;22029;-73
2022/10/17 04:21:27;;;;;;;14.03;9.93;;;;;;;5.39;78.39;101403.03;1746844;82;21032;-73
2022/10/17 04:23:56;;;;;;;14.65;11.78;;;;;;;5.35;78.47;101400.39;1747543;82;21000;-75
2022/10/17 04:26:26;;;;;;;14.65;11.03;;;;;;;5.33;78.58;101398.38;1746496;81;21511;-75
2022/10/17 04:28:52;;;;;;;20.37;12.33;;;;;;;5.35;78.67;101403.55;1734144;80;21046;-74
2022/10/17 04:31:20;;;;;;;14.10;11.12;;;;;;;5.36;78.74;101394.05;1733930;82;21144;-74
2022/10/17 04:33:54;;;;;;;13.70;10.20;;;;;;;5.41;78.67;101393.53;1731838;81;22247;-75
2022/10/17 04:36:22;;;;;;;13.88;11.55;;;;;;;5.43;78.57;101403.01;1755890;81;21024;-75
2022/10/17 04:38:50;;;;;;;16.42;12.50;;;;;;;5.41;78.54;101390.36;1737511;82;21079;-75
2022/10/17 04:41:18;;;;;;;20.52;11.15;;;;;;;5.40;78.47;101379.86;1737865;82;21056;-73
2022/10/17 04:43:46;;;;;;;15.80;10.80;;;;;;;5.38;78.56;101397.36;1753752;81;21155;-75
2022/10/17 04:46:14;;;;;;;14.23;10.48;;;;;;;5.36;78.57;101406.56;1745774;81;21170;-73
2022/10/17 04:48:41;;;;;;;11.00;9.18;;;;;;;5.33;78.60;101412.22;1733698;82;21022;-73
2022/10/17 04:51:11;;;;;;;16.00;12.18;;;;;;;5.31;78.65;101406.25;1733923;82;21065;-76
2022/10/17 04:53:40;;;;;;;14.03;10.65;;;;;;;5.25;78.69;101405.94;1732814;82;21106;-74
2022/10/17 04:56:13;;;;;;;21.73;11.10;;;;;;;5.19;78.79;101403.95;1742623;81;21138;-75
2022/10/17 04:58:41;;;;;;;16.12;12.18;;;;;;;5.19;78.79;101403.95;1734989;81;21535;-74
2022/10/17 05:01:10;;;;;;;17.12;12.85;;;;;;;5.20;79.08;101402.12;1761559;81;21045;-72
2022/10/17 05:03:37;;;;;;;21.50;14.65;;;;;;;5.26;79.12;101398.27;1761463;81;21058;-74
2022/10/17 05:06:08;;;;;;;18.55;13.95;;;;;;;5.31;79.01;101399.08;1767971;80;21141;-74
2022/10/17 05:08:36;;;;;;;18.37;14.50;;;;;;;5.34;78.91;101406.72;1711133;81;21144;-78
2022/10/17 05:11:04;;;;;;;19.92;14.65;;;;;;;5.37;78.84;101405.56;1761507;81;21028;-72
2022/10/17 05:13:32;;;;;;;19.12;15.20;;;;;;;5.38;78.64;101411.20;1733666;81;21015;-75
2022/10/17 05:16:01;;;;;;;22.52;17.32;;;;;;;5.36;78.56;101412.73;1761433;81;21574;-72
2022/10/17 05:18:28;;;;;;;20.30;15.30;;;;;;;5.35;78.54;101417.73;1793959;80;21685;-72
2022/10/17 05:20:56;;;;;;;21.50;16.77;;;;;;;5.35;78.51;101421.73;1793300;80;21770;-73
2022/10/17 05:23:23;;;;;;;16.37;13.85;;;;;;;5.33;78.50;101427.73;1794152;80;20991;-71
2022/10/17 05:25:55;;;;;;;25.02;16.52;;;;;;;5.33;78.56;101422.89;1785940;80;21059;-71
2022/10/17 05:28:23;;;;;;;21.10;15.78;;;;;;;5.31;78.59;101423.09;1791566;80;21011;-71
2022/10/17 05:30:51;;;;;;;21.15;15.65;;;;;;;5.34;78.63;101429.40;1794295;80;21034;-72
2022/10/17 05:33:17;;;;;;;18.55;13.68;;;;;;;5.38;78.67;101441.89;1739155;81;21559;-72
2022/10/17 05:35:45;;;;;;;22.15;15.58;;;;;;;5.45;78.60;101437.53;1760622;81;20994;-74
2022/10/17 05:38:13;;;;;;;23.85;15.45;;;;;;;5.55;78.41;101435.48;1762628;81;21034;-71
2022/10/17 05:40:42;;;;;;;27.73;17.07;;;;;;;5.62;78.16;101429.77;1735309;81;21531;-73
2022/10/17 05:43:09;;;;;;;24.12;17.07;;;;;;;5.66;78.00;101423.90;1791518;80;21015;-72
2022/10/17 05:45:36;;;;;;;20.82;15.05;;;;;;;5.71;77.87;101429.55;1765202;80;21127;-74
2022/10/17 05:48:03;;;;;;;18.55;15.08;;;;;;;5.75;77.75;101428.72;1710786;81;20974;-73
2022/10/17 05:50:31;;;;;;;19.57;14.73;;;;;;;5.77;77.55;101428.02;1735404;81;21652;-73
2022/10/17 05:53:15;;;;;;;24.72;15.95;;;;;;;5.80;77.38;101437.03;1762992;81;20997;-74
2022/10/17 05:55:44;;;;;;;21.80;15.15;;;;;;;5.83;77.26;101447.34;1762738;80;21597;-73
2022/10/17 05:58:10;;;;;;;22.00;15.32;;;;;;;5.85;77.17;101433.83;1789704;80;22012;-73
2022/10/17 06:00:39;;;;;;;26.02;15.85;;;;;;;5.88;77.06;101432.16;1786715;80;20994;-73
2022/10/17 06:03:09;;;;;;;27.85;16.97;;;;;;;5.91;76.98;101429.13;1788520;80;21479;-73
2022/10/17 06:05:35;;;;;;;32.00;15.45;;;;;;;5.94;76.87;101432.30;1758704;80;20996;-73
2022/10/17 06:08:02;;;;;;;19.00;15.03;;;;;;;5.98;76.75;101438.11;1731246;80;21642;-72
2022/10/17 06:10:31;;;;;;;17.32;13.83;;;;;;;6.06;76.59;101440.21;1729375;81;21212;-72
2022/10/17 06:12:59;;;;;;;24.12;14.80;;;;;;;6.13;76.33;101435.84;1717124;82;21537;-72
2022/10/17 06:15:25;;;;;;;22.02;15.83;;;;;;;6.22;76.17;101429.92;1749923;80;21078;-73
2022/10/17 06:17:54;;;;;;;16.35;14.10;;;;;;;6.26;75.76;101430.39;1739335;82;21001;-73
2022/10/17 06:20:23;;;;;;;15.60;13.25;;;;;;;6.27;75.79;101436.90;1730839;82;21034;-72
2022/10/17 06:22:49;;;;;;;19.10;15.25;;;;;;;6.30;75.68;101450.39;1729987;82;21081;-74
2022/10/17 06:25:19;;;;;;;17.12;14.25;;;;;;;6.33;75.62;101445.52;1728930;82;21648;-73
2022/10/17 06:27:46;;;;;;;19.50;14.07;;;;;;;6.38;75.40;101452.48;1741918;82;20993;-72
2022/10/17 06:30:13;;;;;;;13.90;11.70;;;;;;;6.45;75.29;101453.95;1746011;82;21114;-75
2022/10/17 06:32:41;;;;;;;17.55;13.93;;;;;;;6.52;75.27;101465.06;1744656;82;21029;-74
2022/10/17 06:35:08;;;;;;;24.30;14.25;;;;;;;6.58;75.20;101460.84;1727369;82;21103;-73
2022/10/17 06:37:36;;;;;;;15.75;11.97;;;;;;;6.66;75.10;101459.46;1725020;83;21031;-74
2022/10/17 06:40:07;;;;;;;22.70;12.63;;;;;;;6.73;74.90;101462.22;1725347;83;21515;-77
2022/10/17 06:42:34;;;;;;;30.52;12.33;;;;;;;6.80;74.74;101465.84;1709735;82;21104;-75
2022/10/17 06:45:10;;;;;;;16.57;13.28;;;;;;;6.88;74.65;101469.77;1710069;82;21546;-75
2022/10/17 06:47:55;;;;;;;18.62;12.68;;;;;;;7.00;74.32;101477.69;1740092;82;21334;-75
2022/10/17 06:50:42;;;;;;;17.27;13.20;;;;;;;7.16;74.15;101468.64;1746083;82;21491;-72
2022/10/17 06:53:20;;;;;;;14.40;11.73;;;;;;;7.29;73.79;101465.64;1745698;82;21022;-71
2022/10/17 06:55:54;;;;;;;22.67;16.37;;;;;;;7.42;72.88;101452.96;1736228;82;21351;-75
2022/10/17 06:58:22;;;;;;;15.25;12.28;;;;;;;7.49;72.55;101452.52;1722034;82;21581;-71
2022/10/17 07:01:01;;;;;;;24.67;14.68;;;;;;;7.59;72.52;101461.09;1728916;82;21561;-72
2022/10/17 07:03:28;;;;;;;17.80;14.03;;;;;;;7.68;72.06;101458.63;1730338;82;21070;-71
2022/10/17 07:05:55;;;;;;;17.65;14.28;;;;;;;7.76;71.46;101459.05;1713722;82;21058;-74
2022/10/17 07:08:23;;;;;;;21.33;12.07;;;;;;;7.87;70.77;101467.92;1730081;82;21609;-72
2022/10/17 07:10:49;;;;;;;21.33;11.65;;;;;;;8.00;70.10;101464.08;1730553;82;21934;-75
2022/10/17 07:13:17;;;;;;;12.90;11.45;;;;;;;8.10;68.99;101461.92;1730508;82;21041;-74
2022/10/17 07:15:44;;;;;;;16.10;12.18;;;;;;;8.22;68.48;101456.87;1738673;82;21059;-74
2022/10/17 07:18:12;;;;;;;15.08;11.15;;;;;;;8.33;67.81;101463.09;1749073;81;21581;-76
2022/10/17 07:20:39;;;;;;;15.15;11.75;;;;;;;8.43;67.56;101464.95;1732126;82;21677;-74
2022/10/17 07:23:08;;;;;;;21.27;12.00;;;;;;;8.53;67.42;101468.14;1739979;81;21106;-72
2022/10/17 07:25:36;;;;;;;13.93;11.70;;;;;;;8.64;67.02;101470.78;1767796;80;21141;-73
2022/10/17 07:28:06;;;;;;;16.90;9.73;;;;;;;8.74;66.76;101476.14;1730765;82;20907;-74
2022/10/17 07:30:35;;;;;;;22.65;11.55;;;;;;;8.85;65.90;101475.30;1765891;81;21058;-74
2022/10/17 07:33:10;;;;;;;17.37;10.32;;;;;;;8.96;65.70;101486.85;1716927;82;21547;-74
2022/10/17 07:35:42;;;;;;;13.08;9.85;;;;;;;9.05;64.87;101482.48;1743958;81;21106;-74
2022/10/17 07:38:13;;;;;;;18.05;10.50;;;;;;;9.13;63.96;101487.69;1781623;80;21008;-74
2022/10/17 07:40:40;;;;;;;15.58;10.08;;;;;;;9.21;63.32;101486.70;1762397;80;21041;-73
2022/10/17 07:43:06;;;;;;;13.28;9.08;;;;;;;9.28;62.85;101476.01;1762530;81;20931;-74
2022/10/17 07:45:37;;;;;;;16.77;10.25;;;;;;;9.36;62.32;101467.78;1741809;81;21050;-73
2022/10/17 07:48:04;;;;;;;11.50;8.98;;;;;;;9.47;61.44;101468.58;1762667;81;21038;-73
2022/10/17 07:50:33;;;;;;;12.07;9.45;;;;;;;9.55;60.95;101464.36;1751874;81;20947;-73
2022/10/17 07:52:59;;;;;;;14.55;9.78;;;;;;;9.64;60.80;101472.56;1732061;82;20990;-72
2022/10/17 07:55:26;;;;;;;12.37;8.45;;;;;;;9.71;60.53;101472.09;1761567;80;21064;-71
2022/10/17 07:57:53;;;;;;;20.20;11.15;;;;;;;9.80;60.25;101452.59;1730080;82;21063;-72
2022/10/17 08:00:21;;;;;;;15.05;11.20;;;;;;;9.91;60.33;101458.22;1726597;82;21479;-72
2022/10/17 08:02:50;;;;;;;13.78;8.80;;;;;;;10.01;59.86;101449.26;1724501;82;21548;-72
2022/10/17 08:05:17;;;;;;;13.98;9.25;;;;;;;10.11;59.65;101454.25;1751045;80;21093;-73
2022/10/17 08:07:43;;;;;;;13.22;9.53;;;;;;;10.22;59.00;101459.55;1792436;80;20966;-72
2022/10/17 08:10:12;;;;;;;12.78;10.32;;;;;;;10.32;58.22;101468.05;1732409;82;21681;-70
2022/10/17 08:12:39;;;;;;;14.68;9.13;;;;;;;10.40;57.82;101453.09;1759253;81;21015;-73
2022/10/17 08:15:08;;;;;;;19.00;10.48;;;;;;;10.47;57.31;101458.77;1762617;81;22254;-73
2022/10/17 08:17:36;;;;;;;11.95;9.93;;;;;;;10.56;57.15;101455.35;1760398;80;22316;-72
2022/10/17 08:20:05;;;;;;;11.73;7.65;;;;;;;10.65;56.81;101447.89;1741259;81;20971;-73
2022/10/17 08:22:32;;;;;;;10.03;7.42;;;;;;;10.73;56.47;101445.02;1759503;81;21325;-76
2022/10/17 08:24:58;;;;;;;10.30;7.45;;;;;;;10.82;55.87;101451.84;1746220;80;21038;-72
2022/10/17 08:27:27;;;;;;;8.95;6.50;;;;;;;10.90;55.57;101439.50;1715300;81;21537;-72
2022/10/17 08:29:54;;;;;;;11.60;8.20;;;;;;;10.98;55.31;101431.74;1760678;81;20976;-72
2022/10/17 08:32:23;;;;;;;10.85;7.03;;;;;;;11.06;55.26;101435.55;1766935;81;21038;-72
2022/10/17 08:34:50;;;;;;;10.78;7.10;;;;;;;11.15;55.21;101441.02;1771336;81;21072;-71
2022/10/17 08:37:17;;;;;;;9.98;7.05;;;;;;;11.23;54.77;101447.52;1753495;81;21022;-76
2022/10/17 08:39:45;;;;;;;8.03;7.00;;;;;;;11.31;54.65;101441.92;1737700;80;22632;-72
2022/10/17 08:42:20;;;;;;;9.95;7.22;;;;;;;11.39;54.50;101429.55;1747759;81;20927;-71
2022/10/17 08:44:58;;;;;;;12.40;7.62;;;;;;;11.48;54.42;101439.56;1707378;82;20986;-71
2022/10/17 08:47:34;;;;;;;8.43;7.08;;;;;;;11.57;54.21;101428.34;1751176;80;21236;-73
2022/10/17 08:50:03;;;;;;;13.68;8.13;;;;;;;11.65;54.15;101430.81;1753603;80;21134;-72
2022/10/17 08:52:44;;;;;;;16.70;7.65;;;;;;;11.73;53.99;101418.98;1736453;81;21010;-73
2022/10/17 08:55:29;;;;;;;13.22;7.70;;;;;;;11.80;54.05;101411.66;1762462;81;21014;-74
2022/10/17 08:57:56;;;;;;;7.85;6.75;;;;;;;11.91;53.84;101421.78;1726041;81;21567;-73
2022/10/17 09:00:24;;;;;;;12.07;7.35;;;;;;;11.97;53.14;101411.48;1724401;83;21021;-73
2022/10/17 09:03:17;;;;;;;11.73;6.67;;;;;;;12.02;53.59;101413.00;1711456;82;20962;-70
2022/10/17 09:05:55;;;;;;;18.15;8.08;;;;;;;12.10;53.62;101401.95;1723443;82;21880;-70
2022/10/17 09:08:40;;;;;;;13.43;7.30;;;;;;;12.23;53.81;101414.50;1746544;82;21739;-72
2022/10/17 09:11:27;;;;;;;9.75;7.17;;;;;;;12.36;53.66;101409.03;1731997;82;21071;-70
2022/10/17 09:14:22;;;;;;;8.18;7.00;;;;;;;12.48;53.38;101420.76;1724035;82;21540;-71
2022/10/17 09:17:15;;;;;;;7.75;5.40;;;;;;;12.60;53.13;101419.53;1729378;82;21055;-72
2022/10/17 09:20:21;;;;;;;12.33;6.40;;;;;;;12.71;51.31;101426.89;1736248;81;21572;-72
2022/10/17 09:23:01;;;;;;;9.73;6.60;;;;;;;12.79;50.45;101422.58;1731422;82;20967;-73
2022/10/17 09:25:27;;;;;;;8.40;6.65;;;;;;;12.83;50.14;101413.50;1732251;82;20979;-72
2022/10/17 09:28:17;;;;;;;6.72;5.58;;;;;;;12.89;50.23;101415.31;1732892;81;21063;-74
2022/10/17 09:30:59;;;;;;;7.65;5.78;;;;;;;12.96;50.04;101424.99;1731666;82;21106;-75
2022/10/17 09:33:41;;;;;;;8.53;6.12;;;;;;;13.05;49.71;101428.23;1710451;83;21868;-72
2022/10/17 09:36:15;;;;;;;9.88;5.97;;;;;;;13.09;48.80;101429.45;1712563;83;21030;-74
2022/10/17 09:38:54;;;;;;;10.58;6.00;;;;;;;13.15;49.22;101431.27;1702493;82;21076;-71
2022/10/17 09:41:28;;;;;;;6.87;6.17;;;;;;;13.27;49.11;101421.39;1698280;82;21031;-70
2022/10/17 09:44:00;;;;;;;9.00;6.15;;;;;;;13.38;48.97;101420.61;1696953;84;21211;-73
2022/10/17 09:46:36;;;;;;;6.47;4.57;;;;;;;13.49;48.59;101421.73;1670191;84;21544;-72
2022/10/17 09:49:08;;;;;;;9.30;5.25;;;;;;;13.54;47.41;101416.48;1697133;83;20967;-73
2022/10/17 09:51:36;;;;;;;7.15;5.25;;;;;;;13.58;47.80;101416.31;1693831;84;20986;-71
2022/10/17 09:54:06;;;;;;;10.93;6.15;;;;;;;13.62;47.97;101413.45;1674507;84;21068;-72
2022/10/17 09:56:35;;;;;;;9.75;6.53;;;;;;;13.69;47.47;101418.79;1702480;82;20980;-73
2022/10/17 09:59:01;;;;;;;14.13;6.17;;;;;;;13.75;47.80;101413.83;1721793;81;21251;-73
2022/10/17 10:01:30;;;;;;;7.28;5.58;;;;;;;13.83;47.64;101406.22;1741057;81;21256;-74
2022/10/17 10:04:14;;;;;;;11.70;5.87;;;;;;;13.93;47.24;101409.72;1745961;81;20990;-72
2022/10/17 10:07:04;;;;;;;9.15;5.30;;;;;;;13.98;47.12;101403.09;1735300;82;20975;-73
2022/10/17 10:09:33;;;;;;;15.23;5.37;;;;;;;14.04;46.31;101409.47;1693578;82;21008;-72
2022/10/17 10:12:05;;;;;;;10.23;5.70;;;;;;;14.10;46.23;101412.61;1732871;81;21242;-70
2022/10/17 10:14:36;;;;;;;9.00;5.47;;;;;;;14.14;46.07;101398.91;1713863;83;21469;-71
2022/10/17 10:17:08;;;;;;;9.25;6.08;;;;;;;14.20;46.21;101393.37;1736871;81;21491;-71
2022/10/17 10:19:43;;;;;;;7.20;5.30;;;;;;;14.26;46.08;101387.05;1746479;81;21484;-73
2022/10/17 10:22:18;;;;;;;11.00;5.25;;;;;;;14.31;46.10;101403.94;1728328;82;21115;-71
2022/10/17 10:24:49;;;;;;;14.40;5.60;;;;;;;14.33;45.68;101398.61;1740909;81;21108;-71
2022/10/17 10:27:17;;;;;;;6.92;5.08;;;;;;;14.38;45.88;101391.17;1724645;82;20987;-72
2022/10/17 10:29:50;;;;;;;7.22;4.95;;;;;;;14.49;45.42;101381.39;1738793;81;21022;-72
2022/10/17 10:32:32;;;;;;;11.30;6.17;;;;;;;14.59;45.11;101380.28;1747553;81;20952;-72
2022/10/17 10:35:22;;;;;;;11.53;5.20;;;;;;;14.67;45.35;101388.08;1747278;81;20957;-74
2022/10/17 10:37:52;;;;;;;7.62;5.67;;;;;;;14.83;44.98;101399.54;1699877;84;21587;-78
2022/10/17 10:40:48;;;;;;;9.63;4.83;;;;;;;14.95;44.28;101400.38;1725799;81;21018;-77
2022/10/17 10:43:41;;;;;;;8.65;5.85;;;;;;;15.09;44.09;101403.66;1740319;81;20962;-77
2022/10/17 10:46:26;;;;;;;6.87;5.20;;;;;;;15.25;42.86;101413.22;1720262;83;21119;-78
2022/10/17 10:48:59;;;;;;;8.93;5.35;;;;;;;15.35;42.54;101407.75;1727196;83;21051;-75
2022/10/17 10:51:40;;;;;;;10.05;5.00;;;;;;;15.41;43.00;101396.75;1716614;82;26814;-85
2022/10/17 10:54:27;;;;;;;7.47;4.90;;;;;;;15.56;42.18;101403.05;1697375;82;21579;-76
2022/10/17 10:56:59;;;;;;;12.07;5.85;;;;;;;15.61;41.01;101403.16;1669278;83;21093;-74
2022/10/17 10:59:34;;;;;;;7.78;4.87;;;;;;;15.57;40.10;101400.11;1704474;83;21070;-81
2022/10/17 11:02:21;;;;;;;7.05;5.85;;;;;;;15.64;40.50;101401.30;1682561;82;21100;-80
2022/10/17 11:05:09;;;;;;;6.05;5.03;;;;;;;15.69;40.16;101410.37;1701509;83;21267;-79
2022/10/17 11:07:44;;;;;;;7.17;5.87;;;;;;;15.80;39.70;101402.42;1682139;83;21064;-77
2022/10/17 11:10:50;;;;;;;9.93;6.30;;;;;;;15.89;39.82;101391.47;1706563;82;21035;-78
2022/10/17 11:13:27;;;;;;;9.10;5.92;;;;;;;15.97;40.02;101382.39;1696856;82;21568;-88
2022/10/17 11:16:11;;;;;;;11.95;6.58;;;;;;;16.01;39.55;101370.54;1703933;82;20974;-77
2022/10/17 11:18:56;;;;;;;10.58;6.47;;;;;;;16.01;39.72;101375.97;1704539;82;21601;-79
2022/10/17 11:22:03;;;;;;;10.48;5.83;;;;;;;16.09;39.62;101367.41;1703262;83;21041;-79
2022/10/17 11:24:39;;;;;;;4.67;4.20;;;;;;;16.21;39.42;101364.64;1688098;84;21303;-71
2022/10/17 11:27:06;;;;;;;12.28;6.58;;;;;;;16.33;38.43;101353.98;1704142;83;21135;-70
2022/10/17 11:29:38;;;;;;;11.40;6.78;;;;;;;16.41;38.96;101354.08;1705665;82;21146;-74
2022/10/17 11:32:10;;;;;;;7.37;6.40;;;;;;;16.42;39.28;101348.41;1718425;82;21982;-82
2022/10/17 11:34:41;;;;;;;;;;;;;;;16.42;39.22;101332.12;1708306;82;22105;-78
2022/10/17 11:37:19;;;;;;;10.43;6.53;;;;;;;16.45;39.18;101340.32;1704460;83;20196;-84
2022/10/17 11:40:04;;;;;;;9.90;5.85;;;;;;;16.46;39.12;101340.59;1720186;81;21077;-88
2022/10/17 11:42:42;;;;;;;9.28;5.87;;;;;;;16.51;38.74;101337.95;1707111;82;21434;-83
2022/10/17 11:45:15;;;;;;;7.40;5.35;;;;;;;16.62;38.28;101344.39;1716849;82;21563;-82
2022/10/17 11:47:52;;;;;;;8.05;5.55;;;;;;;16.70;37.84;101335.81;1732173;82;25074;-87